Time;durP1;ratioP1;P1;durP2;ratioP2;P2;SDS_P1;SDS_P2;PMS_P1;PMS_P2;Temp;Humidity;BMP_temperature;BMP_pressure;BME280_temperature;BME280_humidity;BME280_pressure;Samples;Min_cycle;Max_cycle;Signal;HPM_P1;HPM_P2
2021/03/25 00:00:36;;;;;;;17.00;9.82;;;;;;;;;;5015729;28;20021;-84
2021/03/25 00:03:21;;;;;;;18.80;10.32;;;;;;;;;;5013409;28;20048;-83
2021/03/25 00:06:07;;;;;;;19.00;11.07;;;;;;;;;;5028567;28;20034;-82
2021/03/25 00:08:52;;;;;;;16.70;10.10;;;;;;;;;;5027139;28;20074;-83
2021/03/25 00:11:37;;;;;;;17.00;10.40;;;;;;;;;;5015265;28;20081;-83
2021/03/25 00:14:23;;;;;;;22.38;11.55;;;;;;;;;;5025055;28;20032;-84
2021/03/25 00:17:09;;;;;;;20.33;10.38;;;;;;;;;;5011037;28;20048;-83
2021/03/25 00:19:54;;;;;;;18.73;10.23;;;;;;;;;;5025266;28;20056;-88
2021/03/25 00:22:39;;;;;;;20.75;11.10;;;;;;;;;;5029604;28;20108;-86
2021/03/25 00:25:27;;;;;;;18.40;10.35;;;;;;;;;;4996601;28;20025;-85
2021/03/25 00:28:12;;;;;;;17.42;10.57;;;;;;;;;;5009111;28;20034;-85
2021/03/25 00:30:58;;;;;;;24.27;10.93;;;;;;;;;;5024717;28;20049;-84
2021/03/25 00:33:43;;;;;;;19.25;10.35;;;;;;;;;;5024582;28;20441;-84
2021/03/25 00:36:28;;;;;;;18.95;10.68;;;;;;;;;;5029592;28;20053;-85
2021/03/25 00:39:14;;;;;;;19.17;10.55;;;;;;;;;;5014338;28;20096;-85
2021/03/25 00:41:59;;;;;;;18.52;10.52;;;;;;;;;;5013867;28;20071;-84
2021/03/25 00:44:44;;;;;;;22.83;11.82;;;;;;;;;;5005646;28;20025;-85
2021/03/25 00:47:30;;;;;;;19.33;11.30;;;;;;;;;;5015057;28;20076;-84
2021/03/25 00:50:32;;;;;;;17.50;10.02;;;;;;;;;;5009499;28;20044;-84
2021/03/25 00:53:19;;;;;;;17.58;10.32;;;;;;;;;;5022768;28;20369;-85
2021/03/25 00:56:05;;;;;;;21.35;12.18;;;;;;;;;;4989365;28;20100;-86
2021/03/25 00:58:50;;;;;;;22.65;11.95;;;;;;;;;;4999432;28;20554;-85
2021/03/25 01:01:37;;;;;;;18.48;11.40;;;;;;;;;;5009439;28;20041;-84
2021/03/25 01:04:22;;;;;;;19.13;10.90;;;;;;;;;;5009240;28;20029;-85
2021/03/25 01:07:07;;;;;;;19.27;10.57;;;;;;;;;;5006119;28;20033;-85
2021/03/25 01:09:52;;;;;;;23.40;11.10;;;;;;;;;;5026361;28;20471;-84
2021/03/25 01:12:38;;;;;;;21.83;11.57;;;;;;;;;;5025694;28;20459;-85
2021/03/25 01:15:24;;;;;;;21.27;10.82;;;;;;;;;;5025146;28;20033;-85
2021/03/25 01:18:09;;;;;;;19.45;11.38;;;;;;;;;;5011597;28;20026;-85
2021/03/25 01:20:55;;;;;;;20.52;12.02;;;;;;;;;;5024491;28;20025;-84
2021/03/25 01:23:40;;;;;;;22.63;12.23;;;;;;;;;;5029089;28;20128;-84
2021/03/25 01:26:25;;;;;;;21.95;11.38;;;;;;;;;;5033164;28;20033;-86
2021/03/25 01:29:11;;;;;;;23.48;11.77;;;;;;;;;;5014228;28;20057;-85
2021/03/25 01:31:56;;;;;;;19.95;11.57;;;;;;;;;;5026136;28;20087;-84
2021/03/25 01:34:41;;;;;;;21.85;11.73;;;;;;;;;;5013962;28;20013;-84
2021/03/25 01:37:26;;;;;;;19.83;11.27;;;;;;;;;;5012145;28;20032;-85
2021/03/25 01:40:14;;;;;;;20.83;12.05;;;;;;;;;;5025378;28;20052;-84
2021/03/25 01:43:08;;;;;;;21.85;11.30;;;;;;;;;;5007636;28;20467;-84
2021/03/25 01:46:12;;;;;;;21.13;12.18;;;;;;;;;;5013864;28;20037;-84
2021/03/25 01:48:59;;;;;;;20.73;11.57;;;;;;;;;;5011693;28;20025;-84
2021/03/25 01:52:00;;;;;;;17.88;11.18;;;;;;;;;;5013845;28;20029;-83
2021/03/25 01:54:54;;;;;;;22.02;12.07;;;;;;;;;;5015059;28;20499;-84
2021/03/25 01:58:03;;;;;;;19.48;10.85;;;;;;;;;;5022189;28;20021;-84
2021/03/25 02:00:58;;;;;;;18.48;10.77;;;;;;;;;;5038632;28;20056;-82
2021/03/25 02:03:56;;;;;;;21.63;11.60;;;;;;;;;;5020370;28;20052;-84
2021/03/25 02:06:45;;;;;;;19.10;11.30;;;;;;;;;;5041415;28;20064;-84
2021/03/25 02:09:30;;;;;;;23.60;11.40;;;;;;;;;;5004778;28;20333;-85
2021/03/25 02:12:19;;;;;;;22.35;11.20;;;;;;;;;;5017988;28;20036;-84
2021/03/25 02:15:08;;;;;;;18.48;11.48;;;;;;;;;;5009495;28;20029;-86
2021/03/25 02:18:01;;;;;;;20.67;11.48;;;;;;;;;;5008873;28;20017;-83
2021/03/25 02:21:05;;;;;;;19.85;11.85;;;;;;;;;;5010312;28;20029;-83
2021/03/25 02:24:03;;;;;;;20.55;11.25;;;;;;;;;;5008489;28;20076;-82
2021/03/25 02:26:48;;;;;;;20.45;11.70;;;;;;;;;;5013479;28;20017;-83
2021/03/25 02:29:40;;;;;;;24.17;11.07;;;;;;;;;;5023329;28;20031;-83
2021/03/25 02:32:28;;;;;;;26.02;11.75;;;;;;;;;;5009605;28;20091;-83
2021/03/25 02:35:19;;;;;;;20.08;12.52;;;;;;;;;;5025495;28;20079;-84
2021/03/25 02:38:07;;;;;;;20.40;10.57;;;;;;;;;;5026573;28;20026;-83
2021/03/25 02:40:54;;;;;;;19.00;11.15;;;;;;;;;;5025341;28;20055;-83
2021/03/25 02:43:39;;;;;;;20.77;11.27;;;;;;;;;;5008625;28;20026;-83
2021/03/25 02:46:31;;;;;;;20.17;11.48;;;;;;;;;;5023545;28;20428;-83
2021/03/25 02:49:18;;;;;;;20.60;11.25;;;;;;;;;;5026187;28;20076;-82
2021/03/25 02:52:07;;;;;;;22.00;11.73;;;;;;;;;;5009594;28;20486;-82
2021/03/25 02:54:53;;;;;;;21.38;11.68;;;;;;;;;;5009531;28;20041;-83
2021/03/25 02:57:43;;;;;;;20.25;11.63;;;;;;;;;;5014409;28;20112;-82
2021/03/25 03:00:28;;;;;;;;;;;;;;;;;;4993843;28;20108;-83
2021/03/25 03:03:26;;;;;;;24.63;11.35;;;;;;;;;;5016289;28;19912;-83
2021/03/25 03:06:13;;;;;;;20.48;11.30;;;;;;;;;;5023422;28;20060;-84
2021/03/25 03:08:59;;;;;;;21.38;11.35;;;;;;;;;;5015613;28;20021;-83
2021/03/25 03:11:46;;;;;;;20.10;10.75;;;;;;;;;;5028011;28;20036;-83
2021/03/25 03:14:34;;;;;;;18.42;11.45;;;;;;;;;;5011980;28;20024;-83
2021/03/25 03:17:23;;;;;;;21.15;11.70;;;;;;;;;;5014881;28;20057;-82
2021/03/25 03:20:12;;;;;;;18.85;10.50;;;;;;;;;;5012007;28;20013;-83
2021/03/25 03:22:57;;;;;;;23.97;11.27;;;;;;;;;;5026026;28;20387;-81
2021/03/25 03:25:43;;;;;;;21.65;11.48;;;;;;;;;;5025574;28;20083;-82
2021/03/25 03:28:35;;;;;;;19.73;10.05;;;;;;;;;;5013702;28;20021;-82
2021/03/25 03:31:25;;;;;;;19.58;11.35;;;;;;;;;;5022851;28;20036;-80
2021/03/25 03:34:16;;;;;;;19.65;10.55;;;;;;;;;;5016499;28;20026;-82
2021/03/25 03:37:05;;;;;;;18.05;10.35;;;;;;;;;;5026184;28;20022;-82
2021/03/25 03:39:53;;;;;;;19.67;10.55;;;;;;;;;;5017166;28;20507;-83
2021/03/25 03:42:39;;;;;;;25.45;11.18;;;;;;;;;;5022682;28;20030;-83
2021/03/25 03:45:25;;;;;;;17.10;9.68;;;;;;;;;;5013718;28;20029;-84
2021/03/25 03:48:16;;;;;;;21.30;9.52;;;;;;;;;;5012260;28;20116;-85
2021/03/25 03:51:03;;;;;;;16.25;9.65;;;;;;;;;;5010189;28;20029;-80
2021/03/25 03:53:49;;;;;;;17.42;9.85;;;;;;;;;;5020488;28;20080;-79
2021/03/25 03:56:43;;;;;;;15.13;9.38;;;;;;;;;;5021284;28;20413;-81
2021/03/25 03:59:34;;;;;;;18.15;9.82;;;;;;;;;;5011181;28;20032;-83
2021/03/25 04:02:28;;;;;;;19.05;9.32;;;;;;;;;;5009467;28;20112;-84
2021/03/25 04:05:19;;;;;;;18.08;9.85;;;;;;;;;;5016232;28;20103;-82
2021/03/25 04:08:14;;;;;;;16.95;8.80;;;;;;;;;;5024393;28;20026;-81
2021/03/25 04:11:12;;;;;;;17.23;9.55;;;;;;;;;;5009080;28;20018;-83
2021/03/25 04:14:03;;;;;;;15.93;9.13;;;;;;;;;;5025006;28;20045;-81
2021/03/25 04:16:48;;;;;;;18.02;9.80;;;;;;;;;;5026622;28;20029;-80
2021/03/25 04:19:37;;;;;;;16.77;8.98;;;;;;;;;;5011155;28;20037;-80
2021/03/25 04:22:27;;;;;;;18.15;10.38;;;;;;;;;;5016717;28;20037;-80
2021/03/25 04:25:17;;;;;;;16.15;9.43;;;;;;;;;;5022586;28;20013;-81
2021/03/25 04:28:12;;;;;;;19.30;9.13;;;;;;;;;;5013781;28;20116;-80
2021/03/25 04:30:58;;;;;;;14.82;8.70;;;;;;;;;;5015076;28;20479;-81
2021/03/25 04:33:43;;;;;;;17.27;9.18;;;;;;;;;;5008498;28;20071;-80
2021/03/25 04:36:31;;;;;;;15.02;8.25;;;;;;;;;;5028858;28;20033;-81
2021/03/25 04:39:17;;;;;;;23.08;9.02;;;;;;;;;;5010295;28;20022;-80
2021/03/25 04:42:03;;;;;;;18.08;9.30;;;;;;;;;;5010268;28;20131;-81
2021/03/25 04:44:49;;;;;;;18.33;8.30;;;;;;;;;;5017552;28;20066;-80
2021/03/25 04:47:39;;;;;;;15.40;8.60;;;;;;;;;;5026604;28;20033;-80
2021/03/25 04:50:27;;;;;;;18.98;8.73;;;;;;;;;;5007847;28;20044;-81
2021/03/25 04:53:21;;;;;;;14.63;7.68;;;;;;;;;;5010652;28;20399;-80
2021/03/25 04:56:08;;;;;;;18.85;9.02;;;;;;;;;;5023424;28;20032;-81
2021/03/25 04:58:58;;;;;;;13.02;7.95;;;;;;;;;;5027349;28;20059;-80
2021/03/25 05:01:43;;;;;;;15.77;8.98;;;;;;;;;;5014244;28;20021;-80
2021/03/25 05:04:29;;;;;;;14.55;7.97;;;;;;;;;;5008587;28;20372;-80
2021/03/25 05:07:24;;;;;;;18.27;9.32;;;;;;;;;;5024273;28;20040;-80
2021/03/25 05:10:16;;;;;;;19.27;9.07;;;;;;;;;;5013034;28;20049;-80
2021/03/25 05:13:01;;;;;;;15.02;8.27;;;;;;;;;;5017418;28;20048;-80
2021/03/25 05:15:47;;;;;;;15.70;7.85;;;;;;;;;;5009823;28;20037;-80
2021/03/25 05:18:33;;;;;;;15.75;8.23;;;;;;;;;;5010832;28;20380;-80
2021/03/25 05:21:23;;;;;;;15.30;8.27;;;;;;;;;;5018306;28;20018;-80
2021/03/25 05:24:11;;;;;;;21.75;9.75;;;;;;;;;;5026275;28;20108;-80
2021/03/25 05:27:00;;;;;;;13.40;7.30;;;;;;;;;;5024429;28;20048;-80
2021/03/25 05:29:47;;;;;;;12.98;8.25;;;;;;;;;;5018553;28;20036;-80
2021/03/25 05:32:34;;;;;;;18.83;9.48;;;;;;;;;;5012187;28;20029;-82
2021/03/25 05:35:24;;;;;;;14.75;8.82;;;;;;;;;;5010593;28;20021;-81
2021/03/25 05:38:09;;;;;;;13.55;8.07;;;;;;;;;;5027266;28;20094;-80
2021/03/25 05:40:56;;;;;;;15.98;9.88;;;;;;;;;;5009275;28;20036;-80
2021/03/25 05:44:00;;;;;;;14.05;8.10;;;;;;;;;;5014244;28;20060;-81
2021/03/25 05:47:01;;;;;;;16.70;9.35;;;;;;;;;;5012353;28;20052;-81
2021/03/25 05:49:58;;;;;;;16.73;8.63;;;;;;;;;;5013243;28;20072;-79
2021/03/25 05:52:44;;;;;;;15.52;8.20;;;;;;;;;;5023253;28;20795;-80
2021/03/25 05:55:48;;;;;;;15.05;7.70;;;;;;;;;;5010344;28;20979;-80
2021/03/25 05:58:45;;;;;;;17.70;8.98;;;;;;;;;;5026814;28;20441;-80
2021/03/25 06:01:35;;;;;;;15.90;8.60;;;;;;;;;;5024394;28;20025;-79
2021/03/25 06:04:20;;;;;;;;;;;;;;;;;;5013150;28;20029;-81
2021/03/25 06:07:15;;;;;;;16.85;8.70;;;;;;;;;;5022043;28;19935;-81
2021/03/25 06:10:05;;;;;;;16.75;8.88;;;;;;;;;;5012671;28;20029;-81
2021/03/25 06:12:50;;;;;;;13.30;7.68;;;;;;;;;;5008386;28;20025;-81
2021/03/25 06:15:35;;;;;;;17.73;9.73;;;;;;;;;;5012998;28;20028;-80
2021/03/25 06:18:29;;;;;;;16.08;9.02;;;;;;;;;;5006658;28;20082;-82
2021/03/25 06:21:27;;;;;;;14.48;8.57;;;;;;;;;;5024836;28;20025;-80
2021/03/25 06:24:31;;;;;;;15.55;8.25;;;;;;;;;;5023964;28;20038;-81
2021/03/25 06:27:22;;;;;;;15.93;8.45;;;;;;;;;;5006262;28;20017;-80
2021/03/25 06:30:10;;;;;;;16.40;9.35;;;;;;;;;;5026685;28;20036;-80
2021/03/25 06:33:07;;;;;;;15.20;8.77;;;;;;;;;;5022844;28;20416;-85
2021/03/25 06:35:54;;;;;;;14.82;9.13;;;;;;;;;;5029356;28;20638;-80
2021/03/25 06:38:44;;;;;;;19.15;9.77;;;;;;;;;;5005941;28;20025;-84
2021/03/25 06:41:42;;;;;;;16.20;8.95;;;;;;;;;;5015283;28;20017;-81
2021/03/25 06:44:32;;;;;;;13.55;8.35;;;;;;;;;;5017006;28;20480;-80
2021/03/25 06:47:43;;;;;;;23.30;16.20;;;;;;;;;;5029555;28;20025;-84
2021/03/25 06:50:33;;;;;;;18.83;10.48;;;;;;;;;;5022940;28;20558;-85
2021/03/25 06:53:19;;;;;;;16.55;7.70;;;;;;;;;;5019437;28;20266;-83
2021/03/25 06:56:05;;;;;;;19.88;8.43;;;;;;;;;;5018294;28;20104;-84
2021/03/25 06:58:53;;;;;;;14.63;8.57;;;;;;;;;;5028258;28;20013;-83
2021/03/25 07:01:43;;;;;;;14.90;7.78;;;;;;;;;;5005144;28;20100;-82
2021/03/25 07:04:30;;;;;;;15.52;7.72;;;;;;;;;;5014414;28;20031;-84
2021/03/25 07:07:31;;;;;;;14.40;7.43;;;;;;;;;;5029723;28;20036;-82
2021/03/25 07:10:19;;;;;;;31.85;11.43;;;;;;;;;;5033802;28;20029;-83
2021/03/25 07:13:05;;;;;;;11.60;7.25;;;;;;;;;;5031046;28;20040;-84
2021/03/25 07:15:52;;;;;;;15.40;7.78;;;;;;;;;;5031565;28;20033;-84
2021/03/25 07:18:37;;;;;;;12.95;8.02;;;;;;;;;;5028725;28;20036;-84
2021/03/25 07:21:35;;;;;;;12.07;7.03;;;;;;;;;;5014192;28;20099;-82
2021/03/25 07:24:37;;;;;;;13.68;7.15;;;;;;;;;;5029541;28;20040;-84
2021/03/25 07:27:24;;;;;;;14.60;7.15;;;;;;;;;;5011633;28;20026;-84
2021/03/25 07:30:12;;;;;;;11.38;7.63;;;;;;;;;;5029173;28;20499;-86
2021/03/25 07:33:09;;;;;;;16.52;7.43;;;;;;;;;;5016486;28;20029;-83
2021/03/25 07:35:58;;;;;;;14.80;6.57;;;;;;;;;;5016009;28;20025;-84
2021/03/25 07:38:44;;;;;;;11.07;6.70;;;;;;;;;;5002361;28;20041;-83
2021/03/25 07:41:31;;;;;;;20.95;13.02;;;;;;;;;;5013722;28;20060;-80
2021/03/25 07:44:31;;;;;;;20.38;10.25;;;;;;;;;;5024887;28;20063;-81
2021/03/25 07:47:27;;;;;;;15.88;7.05;;;;;;;;;;5026533;28;20029;-80
2021/03/25 07:50:17;;;;;;;10.23;6.05;;;;;;;;;;5029577;28;20535;-84
2021/03/25 07:53:24;;;;;;;13.85;6.60;;;;;;;;;;5017843;28;20051;-84
2021/03/25 07:56:11;;;;;;;17.02;7.10;;;;;;;;;;5012615;28;20060;-83
2021/03/25 07:58:56;;;;;;;13.40;6.88;;;;;;;;;;5015643;28;20095;-81
2021/03/25 08:01:46;;;;;;;12.57;6.95;;;;;;;;;;5008347;28;20155;-83
2021/03/25 08:04:32;;;;;;;12.10;6.80;;;;;;;;;;5014374;28;20021;-83
2021/03/25 08:07:18;;;;;;;16.65;6.63;;;;;;;;;;5009264;28;20032;-83
2021/03/25 08:10:04;;;;;;;11.93;6.10;;;;;;;;;;5011030;28;20105;-83
2021/03/25 08:12:50;;;;;;;22.15;7.20;;;;;;;;;;5005254;28;20029;-82
2021/03/25 08:15:37;;;;;;;13.75;6.20;;;;;;;;;;5033847;28;20021;-87
2021/03/25 08:18:25;;;;;;;12.43;5.93;;;;;;;;;;5022144;28;20077;-85
2021/03/25 08:21:38;;;;;;;22.42;13.05;;;;;;;;;;5033020;28;20479;-85
2021/03/25 08:24:43;;;;;;;22.17;11.82;;;;;;;;;;5011603;28;20056;-81
2021/03/25 08:27:47;;;;;;;12.50;5.85;;;;;;;;;;5012724;28;20021;-82
2021/03/25 08:30:51;;;;;;;12.10;5.38;;;;;;;;;;5015117;28;20033;-82
2021/03/25 08:33:51;;;;;;;10.32;5.18;;;;;;;;;;5009516;28;20120;-81
2021/03/25 08:36:49;;;;;;;11.32;4.80;;;;;;;;;;5008809;28;20039;-83
2021/03/25 08:39:57;;;;;;;13.43;5.65;;;;;;;;;;5014005;28;20029;-82
2021/03/25 08:42:48;;;;;;;11.70;5.72;;;;;;;;;;5023343;28;20072;-83
2021/03/25 08:45:41;;;;;;;10.35;4.50;;;;;;;;;;5028252;28;20026;-83
2021/03/25 08:48:29;;;;;;;7.43;4.63;;;;;;;;;;5007333;28;20079;-84
2021/03/25 08:51:47;;;;;;;16.55;5.30;;;;;;;;;;5026326;28;20120;-85
2021/03/25 08:54:40;;;;;;;8.00;4.72;;;;;;;;;;4981038;28;20661;-84
2021/03/25 08:57:27;;;;;;;15.13;10.07;;;;;;;;;;5006552;28;20068;-88
2021/03/25 09:00:19;;;;;;;14.98;9.75;;;;;;;;;;5021935;28;20025;-87
2021/03/25 09:03:09;;;;;;;10.35;5.35;;;;;;;;;;5013144;28;20052;-84
2021/03/25 09:06:13;;;;;;;15.18;5.03;;;;;;;;;;5013682;28;20133;-85
2021/03/25 09:09:20;;;;;;;13.82;5.40;;;;;;;;;;5019587;28;20025;-84
2021/03/25 09:12:29;;;;;;;8.57;4.97;;;;;;;;;;5022511;28;20027;-85
2021/03/25 09:15:15;;;;;;;;;;;;;;;;;;5033810;28;20056;-86
2021/03/25 09:18:05;;;;;;;17.67;7.60;;;;;;;;;;5047478;28;19977;-84
2021/03/25 09:20:52;;;;;;;19.13;8.20;;;;;;;;;;5030603;28;20068;-84
2021/03/25 09:23:39;;;;;;;22.45;9.23;;;;;;;;;;5030008;28;20038;-85
2021/03/25 09:26:24;;;;;;;18.48;8.43;;;;;;;;;;5014276;28;20025;-85
2021/03/25 09:29:10;;;;;;;17.88;8.10;;;;;;;;;;5023491;28;20044;-85
2021/03/25 09:31:56;;;;;;;16.00;8.40;;;;;;;;;;5013049;28;20095;-83
2021/03/25 09:34:44;;;;;;;19.77;9.25;;;;;;;;;;5010361;28;21566;-84
2021/03/25 09:37:30;;;;;;;23.83;10.17;;;;;;;;;;5012216;28;20025;-84
2021/03/25 09:40:34;;;;;;;19.42;8.48;;;;;;;;;;5011331;28;20120;-83
2021/03/25 09:43:23;;;;;;;29.42;21.10;;;;;;;;;;5014873;28;20033;-83
2021/03/25 09:46:26;;;;;;;19.25;9.88;;;;;;;;;;5006087;28;20037;-83
2021/03/25 09:49:18;;;;;;;14.77;9.70;;;;;;;;;;5013988;28;20037;-84
2021/03/25 09:52:06;;;;;;;18.02;10.38;;;;;;;;;;5014157;28;20111;-82
2021/03/25 09:54:54;;;;;;;14.83;8.83;;;;;;;;;;5021633;28;20056;-84
2021/03/25 09:57:41;;;;;;;20.60;10.20;;;;;;;;;;5013664;28;20022;-87
2021/03/25 10:00:27;;;;;;;16.00;8.63;;;;;;;;;;5023443;28;20388;-85
2021/03/25 10:03:16;;;;;;;20.10;8.98;;;;;;;;;;5005867;28;20397;-85
2021/03/25 10:06:01;;;;;;;19.02;9.30;;;;;;;;;;5001304;28;20053;-86
2021/03/25 10:08:51;;;;;;;15.63;9.15;;;;;;;;;;5025831;28;20034;-84
2021/03/25 10:11:42;;;;;;;21.30;9.50;;;;;;;;;;5006424;28;20025;-85
2021/03/25 10:14:45;;;;;;;11.82;8.80;;;;;;;;;;5017261;28;20045;-84
2021/03/25 10:17:45;;;;;;;16.48;8.65;;;;;;;;;;5026563;28;20079;-84
2021/03/25 10:20:49;;;;;;;15.60;8.27;;;;;;;;;;5022057;28;20025;-81
2021/03/25 10:23:39;;;;;;;12.75;8.07;;;;;;;;;;5011846;28;20093;-84
2021/03/25 10:26:35;;;;;;;15.13;8.55;;;;;;;;;;5009822;28;20075;-83
2021/03/25 10:29:26;;;;;;;13.15;7.55;;;;;;;;;;5026743;28;20065;-86
2021/03/25 10:32:16;;;;;;;15.88;8.07;;;;;;;;;;5008227;28;20021;-82
2021/03/25 10:35:04;;;;;;;14.45;7.63;;;;;;;;;;5012863;28;20076;-81
2021/03/25 10:37:54;;;;;;;13.82;7.82;;;;;;;;;;5022744;28;20026;-83
2021/03/25 10:40:40;;;;;;;13.20;7.78;;;;;;;;;;5022942;28;20018;-83
2021/03/25 10:43:28;;;;;;;12.73;7.20;;;;;;;;;;5007949;28;20033;-81
2021/03/25 10:46:24;;;;;;;11.77;7.65;;;;;;;;;;5016339;28;20025;-83
2021/03/25 10:49:15;;;;;;;16.15;9.15;;;;;;;;;;5005314;28;20061;-85
2021/03/25 10:52:01;;;;;;;13.57;7.32;;;;;;;;;;5010464;28;20172;-83
2021/03/25 10:54:47;;;;;;;14.98;8.70;;;;;;;;;;5004028;28;20036;-82
2021/03/25 10:57:32;;;;;;;14.77;10.18;;;;;;;;;;5017880;28;20026;-83
2021/03/25 11:00:37;;;;;;;13.45;7.88;;;;;;;;;;5011292;28;20473;-83
2021/03/25 11:03:34;;;;;;;11.85;7.00;;;;;;;;;;5008200;28;20026;-82
2021/03/25 11:06:24;;;;;;;13.70;7.40;;;;;;;;;;5023861;28;20125;-84
2021/03/25 11:09:15;;;;;;;12.55;6.55;;;;;;;;;;5009497;28;20090;-83
2021/03/25 11:12:04;;;;;;;12.15;7.15;;;;;;;;;;5010939;28;20033;-84
2021/03/25 11:14:54;;;;;;;9.70;6.47;;;;;;;;;;5008996;28;20083;-83
2021/03/25 11:17:48;;;;;;;11.48;7.43;;;;;;;;;;5024245;28;20057;-81
2021/03/25 11:20:40;;;;;;;10.95;6.60;;;;;;;;;;5008416;28;20084;-82
2021/03/25 11:23:26;;;;;;;14.45;7.22;;;;;;;;;;5010040;28;20112;-81
2021/03/25 11:26:14;;;;;;;12.40;7.13;;;;;;;;;;5012225;28;20021;-84
2021/03/25 11:29:01;;;;;;;8.75;5.80;;;;;;;;;;5010550;28;20056;-79
2021/03/25 11:31:46;;;;;;;12.07;6.78;;;;;;;;;;5012967;28;20021;-79
2021/03/25 11:34:31;;;;;;;13.15;7.18;;;;;;;;;;5010125;28;20101;-81
2021/03/25 11:37:22;;;;;;;13.90;7.30;;;;;;;;;;5029506;28;20019;-80
2021/03/25 11:40:15;;;;;;;20.50;6.93;;;;;;;;;;5010975;28;20029;-81
2021/03/25 11:43:05;;;;;;;13.10;6.75;;;;;;;;;;5015906;28;20049;-80
2021/03/25 11:45:52;;;;;;;16.40;10.88;;;;;;;;;;5013852;28;20128;-80
2021/03/25 11:48:38;;;;;;;13.43;8.10;;;;;;;;;;5015095;28;20384;-81
2021/03/25 11:51:24;;;;;;;13.40;6.93;;;;;;;;;;5008832;28;20044;-80
2021/03/25 11:54:29;;;;;;;14.73;6.72;;;;;;;;;;5031878;28;20071;-81
2021/03/25 11:57:21;;;;;;;13.73;6.95;;;;;;;;;;5014717;28;20484;-80
2021/03/25 12:00:06;;;;;;;11.00;6.03;;;;;;;;;;5009346;28;20526;-80
2021/03/25 12:02:52;;;;;;;13.60;6.50;;;;;;;;;;5014852;28;20424;-79
2021/03/25 12:05:39;;;;;;;13.27;6.93;;;;;;;;;;5023639;28;20531;-80
2021/03/25 12:08:26;;;;;;;13.45;6.63;;;;;;;;;;5011877;28;20068;-79
2021/03/25 12:11:13;;;;;;;16.05;6.85;;;;;;;;;;5009933;28;20026;-80
2021/03/25 12:13:58;;;;;;;13.85;6.32;;;;;;;;;;5012753;28;20026;-80
2021/03/25 12:16:43;;;;;;;13.57;6.68;;;;;;;;;;5022013;28;20343;-80
2021/03/25 12:19:32;;;;;;;13.30;6.55;;;;;;;;;;5020898;28;20025;-80
2021/03/25 12:22:31;;;;;;;14.93;6.85;;;;;;;;;;5010132;28;20024;-80
2021/03/25 12:25:18;;;;;;;12.57;6.03;;;;;;;;;;5013842;28;20037;-80
2021/03/25 12:28:03;;;;;;;13.80;6.95;;;;;;;;;;5025416;28;20017;-80
2021/03/25 12:30:49;;;;;;;13.07;6.93;;;;;;;;;;5016834;28;20484;-80
2021/03/25 12:33:36;;;;;;;12.07;7.85;;;;;;;;;;5000564;28;20170;-80
2021/03/25 12:36:22;;;;;;;14.18;6.93;;;;;;;;;;5014604;28;20025;-79
2021/03/25 12:39:08;;;;;;;15.18;7.80;;;;;;;;;;5016240;28;20079;-80
2021/03/25 12:41:53;;;;;;;14.18;7.15;;;;;;;;;;5026069;28;20079;-80
2021/03/25 12:44:39;;;;;;;14.30;6.80;;;;;;;;;;5023178;28;20022;-80
2021/03/25 12:47:24;;;;;;;15.55;7.60;;;;;;;;;;5023897;28;20599;-80
2021/03/25 12:50:09;;;;;;;14.07;8.30;;;;;;;;;;5013322;28;20017;-79
2021/03/25 12:52:56;;;;;;;13.68;7.38;;;;;;;;;;5012246;28;20112;-79
2021/03/25 12:55:41;;;;;;;14.55;8.05;;;;;;;;;;5016500;28;20075;-81
2021/03/25 12:58:30;;;;;;;14.50;7.95;;;;;;;;;;5027200;28;20021;-81
2021/03/25 13:01:17;;;;;;;13.75;8.02;;;;;;;;;;5010400;28;20064;-79
2021/03/25 13:04:03;;;;;;;14.15;8.30;;;;;;;;;;5012241;28;20411;-81
2021/03/25 13:06:49;;;;;;;17.58;9.05;;;;;;;;;;5029241;28;20048;-79
2021/03/25 13:09:34;;;;;;;15.25;8.30;;;;;;;;;;5009025;28;20025;-81
2021/03/25 13:12:24;;;;;;;14.32;7.50;;;;;;;;;;5013149;28;20373;-81
2021/03/25 13:15:10;;;;;;;12.75;7.55;;;;;;;;;;5011246;28;20033;-83
2021/03/25 13:17:55;;;;;;;13.00;7.30;;;;;;;;;;5009652;28;20442;-81
2021/03/25 13:20:41;;;;;;;16.95;7.97;;;;;;;;;;5011502;28;20105;-81
2021/03/25 13:23:26;;;;;;;14.25;7.07;;;;;;;;;;5021206;28;20504;-81
2021/03/25 13:26:11;;;;;;;14.45;8.05;;;;;;;;;;5016906;28;20120;-81
2021/03/25 13:28:57;;;;;;;16.63;7.63;;;;;;;;;;5007096;28;20542;-80
2021/03/25 13:31:42;;;;;;;15.25;8.25;;;;;;;;;;5007477;28;20506;-81
2021/03/25 13:34:27;;;;;;;18.27;7.85;;;;;;;;;;5009350;28;20112;-81
2021/03/25 13:37:13;;;;;;;14.43;7.05;;;;;;;;;;5023927;28;20053;-82
2021/03/25 13:40:01;;;;;;;15.38;7.88;;;;;;;;;;5009315;28;20040;-81
2021/03/25 13:42:47;;;;;;;15.45;7.10;;;;;;;;;;5013889;28;20056;-81
2021/03/25 13:45:33;;;;;;;11.85;6.65;;;;;;;;;;4996375;28;20029;-80
2021/03/25 13:48:18;;;;;;;12.93;6.95;;;;;;;;;;5011574;28;20025;-81
2021/03/25 13:51:05;;;;;;;12.02;5.90;;;;;;;;;;5010626;28;20540;-81
2021/03/25 13:53:50;;;;;;;17.67;7.63;;;;;;;;;;4986918;28;20558;-80
2021/03/25 13:56:35;;;;;;;14.23;7.70;;;;;;;;;;5026089;28;20028;-81
2021/03/25 13:59:21;;;;;;;16.30;7.13;;;;;;;;;;5015362;28;20029;-81
2021/03/25 14:02:06;;;;;;;13.60;7.70;;;;;;;;;;5016369;28;20079;-80
2021/03/25 14:04:52;;;;;;;20.48;11.88;;;;;;;;;;5011410;28;20842;-79
2021/03/25 14:07:37;;;;;;;14.57;8.43;;;;;;;;;;5006461;28;20044;-81
2021/03/25 14:10:26;;;;;;;13.90;8.45;;;;;;;;;;5003234;28;20472;-83
2021/03/25 14:13:12;;;;;;;16.07;7.87;;;;;;;;;;5014028;28;20053;-81
2021/03/25 14:15:58;;;;;;;16.60;8.30;;;;;;;;;;5011298;28;20051;-80
2021/03/25 14:18:47;;;;;;;18.77;8.57;;;;;;;;;;5014036;28;20026;-79
2021/03/25 14:21:32;;;;;;;15.88;7.55;;;;;;;;;;5010543;28;20084;-82
2021/03/25 14:24:17;;;;;;;12.45;7.18;;;;;;;;;;5009614;28;20119;-79
2021/03/25 14:27:03;;;;;;;15.55;7.20;;;;;;;;;;5006617;28;20064;-80
2021/03/25 14:29:48;;;;;;;17.10;8.07;;;;;;;;;;5010389;28;20029;-82
2021/03/25 14:32:33;;;;;;;17.98;8.25;;;;;;;;;;5024588;28;20026;-81
2021/03/25 14:35:20;;;;;;;15.52;8.57;;;;;;;;;;5025041;28;20104;-81
2021/03/25 14:38:06;;;;;;;13.98;7.88;;;;;;;;;;4996960;28;20021;-79
2021/03/25 14:40:52;;;;;;;16.42;8.00;;;;;;;;;;5021350;28;20410;-80
2021/03/25 14:43:37;;;;;;;14.43;7.40;;;;;;;;;;5017546;28;20040;-79
2021/03/25 14:46:22;;;;;;;18.88;10.60;;;;;;;;;;5007734;28;20029;-80
2021/03/25 14:49:08;;;;;;;17.50;9.88;;;;;;;;;;5009004;28;20183;-80
2021/03/25 14:51:53;;;;;;;16.30;10.00;;;;;;;;;;5007999;28;20033;-89
2021/03/25 14:54:39;;;;;;;15.13;8.55;;;;;;;;;;5009125;28;20013;-90
2021/03/25 14:57:24;;;;;;;16.70;8.63;;;;;;;;;;5021240;28;20022;-90
2021/03/25 15:00:12;;;;;;;14.75;9.00;;;;;;;;;;5014859;28;20256;-89
2021/03/25 15:02:57;;;;;;;21.77;8.82;;;;;;;;;;5023456;28;20025;-90
2021/03/25 15:05:43;;;;;;;14.43;8.50;;;;;;;;;;5027204;28;20087;-89
2021/03/25 15:08:30;;;;;;;16.10;8.48;;;;;;;;;;5021330;28;20478;-93
2021/03/25 15:11:15;;;;;;;16.77;8.77;;;;;;;;;;5015454;28;20033;-87
2021/03/25 15:14:01;;;;;;;15.82;9.10;;;;;;;;;;5010822;28;20033;-87
2021/03/25 15:16:46;;;;;;;17.55;9.30;;;;;;;;;;5025652;28;20025;-88
2021/03/25 15:19:32;;;;;;;16.08;8.10;;;;;;;;;;5016314;28;20105;-88
2021/03/25 15:22:18;;;;;;;16.85;9.45;;;;;;;;;;5005456;28;20025;-89
2021/03/25 15:25:05;;;;;;;20.38;12.85;;;;;;;;;;5018111;28;20128;-89
2021/03/25 15:27:51;;;;;;;12.35;8.50;;;;;;;;;;5014315;28;20029;-86
2021/03/25 15:30:37;;;;;;;17.10;9.13;;;;;;;;;;5025071;28;20033;-89
2021/03/25 15:33:23;;;;;;;14.77;8.23;;;;;;;;;;5012365;28;20053;-88
2021/03/25 15:36:11;;;;;;;17.35;9.75;;;;;;;;;;5018649;28;20026;-89
2021/03/25 15:38:59;;;;;;;14.75;8.13;;;;;;;;;;5013776;28;20026;-89
2021/03/25 15:41:45;;;;;;;17.05;8.95;;;;;;;;;;5020249;28;20454;-89
2021/03/25 15:44:31;;;;;;;18.70;7.80;;;;;;;;;;5049478;28;20002;-90
2021/03/25 15:47:20;;;;;;;13.60;7.07;;;;;;;;;;5041023;28;20017;-88
2021/03/25 15:50:05;;;;;;;13.43;7.18;;;;;;;;;;5023128;28;20140;-89
2021/03/25 15:52:51;;;;;;;15.15;7.25;;;;;;;;;;5024956;28;20500;-85
2021/03/25 15:55:36;;;;;;;15.20;6.72;;;;;;;;;;5013861;28;20017;-86
2021/03/25 15:58:21;;;;;;;13.60;7.57;;;;;;;;;;5014459;28;20506;-89
2021/03/25 16:01:07;;;;;;;11.38;7.53;;;;;;;;;;5022088;28;20032;-90
2021/03/25 16:03:53;;;;;;;14.55;7.93;;;;;;;;;;5019433;28;20029;-90
2021/03/25 16:06:39;;;;;;;17.98;10.90;;;;;;;;;;5010650;28;20038;-91
2021/03/25 16:09:25;;;;;;;14.40;7.38;;;;;;;;;;5007372;28;20515;-90
2021/03/25 16:12:10;;;;;;;20.20;11.30;;;;;;;;;;5014307;28;20124;-89
2021/03/25 16:14:56;;;;;;;17.92;10.05;;;;;;;;;;5009883;28;20025;-90
2021/03/25 16:17:42;;;;;;;12.50;6.80;;;;;;;;;;5024215;28;20026;-90
2021/03/25 16:20:29;;;;;;;14.95;7.68;;;;;;;;;;5010441;28;20021;-91
2021/03/25 16:23:16;;;;;;;11.23;6.28;;;;;;;;;;5025108;28;20026;-90
2021/03/25 16:26:03;;;;;;;12.77;6.40;;;;;;;;;;5032589;28;20036;-89
2021/03/25 16:28:50;;;;;;;13.18;6.68;;;;;;;;;;5022166;28;20025;-88
2021/03/25 16:31:35;;;;;;;10.38;6.60;;;;;;;;;;5027223;28;20006;-87
2021/03/25 16:34:21;;;;;;;10.60;5.68;;;;;;;;;;4998355;28;20456;-87
2021/03/25 16:37:06;;;;;;;13.57;6.15;;;;;;;;;;5021524;28;22277;-87